Time;durP1;ratioP1;P1;durP2;ratioP2;P2;SDS_P1;SDS_P2;PMS_P1;PMS_P2;Temp;Humidity;BMP_temperature;BMP_pressure;BME280_temperature;BME280_humidity;BME280_pressure;Samples;Min_cycle;Max_cycle;Signal;HPM_P1;HPM_P2
2022/06/28 00:00:11;;;;;;;;;1.75;1.75;;;;;20.23;50.01;101392.69;5014994;28;47688;-85
2022/06/28 00:02:36;;;;;;;;;2.75;1.50;;;;;20.25;49.51;101399.50;5015108;28;45749;-82
2022/06/28 00:05:03;;;;;;;;;2.00;1.25;;;;;20.23;49.90;101395.34;5016461;28;45655;-83
2022/06/28 00:07:29;;;;;;;;;1.25;0.50;;;;;20.19;49.96;101388.66;5016368;28;46486;-83
2022/06/28 00:09:54;;;;;;;;;2.00;2.00;;;;;20.09;49.74;101373.59;5015815;28;45702;-82
2022/06/28 00:12:20;;;;;;;;;3.50;2.50;;;;;20.16;49.79;101384.47;5016044;28;45714;-82
2022/06/28 00:18:07;;;;;;;;;2.50;2.00;;;;;20.16;49.54;101387.13;5015415;28;46139;-83
2022/06/28 00:20:33;;;;;;;;;3.00;2.00;;;;;20.13;49.75;101374.94;4997726;28;47072;-82
2022/06/28 00:22:58;;;;;;;;;2.50;1.50;;;;;20.19;49.83;101380.69;5015834;28;45710;-82
2022/06/28 00:25:24;;;;;;;;;2.00;1.00;;;;;20.16;50.52;101376.47;5016004;28;45744;-82
2022/06/28 00:27:49;;;;;;;;;2.25;1.00;;;;;20.07;50.50;101362.28;5015899;28;45893;-84
2022/06/28 00:30:14;;;;;;;;;1.00;1.00;;;;;20.13;50.60;101382.13;5015774;28;45591;-81
2022/06/28 00:32:40;;;;;;;;;2.00;2.00;;;;;20.08;50.52;101377.22;5015814;28;45662;-82
2022/06/28 00:35:06;;;;;;;;;3.25;1.00;;;;;20.08;50.87;101382.56;5015856;28;45638;-83
2022/06/28 00:37:31;;;;;;;;;1.00;1.00;;;;;20.08;50.69;101385.22;5015598;28;45555;-84
2022/06/28 00:39:57;;;;;;;;;0.75;0.50;;;;;20.00;51.10;101368.34;5015737;28;45507;-80
2022/06/28 00:42:23;;;;;;;;;3.25;2.00;;;;;20.03;50.53;101379.50;5015658;28;45617;-81
2022/06/28 00:48:15;;;;;;;;;1.50;1.50;;;;;19.96;50.82;101369.66;5015417;28;46075;-82
2022/06/28 00:50:41;;;;;;;;;2.00;2.00;;;;;19.94;51.03;101372.44;5015747;28;46448;-83
2022/06/28 00:53:10;;;;;;;;;2.00;1.75;;;;;19.87;51.30;101370.53;5015892;28;45610;-82
2022/06/28 00:55:36;;;;;;;;;1.50;0.50;;;;;19.83;51.20;101359.38;5015606;28;45621;-84
2022/06/28 00:58:02;;;;;;;;;0.50;0.50;;;;;19.86;51.17;101379.50;4997507;28;48487;-83
2022/06/28 01:00:31;;;;;;;;;2.50;2.00;;;;;19.82;51.05;101370.16;5015284;28;46186;-83
2022/06/28 01:02:57;;;;;;;;;4.00;2.00;;;;;19.76;50.92;101360.13;5013485;28;45814;-83
2022/06/28 01:05:22;;;;;;;;;1.00;1.00;;;;;19.84;50.73;101370.84;4997248;28;45949;-83
2022/06/28 01:07:48;;;;;;;;;3.00;1.00;;;;;19.74;51.29;101364.75;5013693;28;46351;-82
2022/06/28 01:10:13;;;;;;;;;1.00;1.00;;;;;19.80;51.62;101369.47;5014071;28;45773;-82
2022/06/28 01:12:39;;;;;;;;;2.00;1.00;;;;;19.80;51.31;101370.31;5015190;28;45612;-82
2022/06/28 01:18:26;;;;;;;;;2.00;1.50;;;;;19.78;51.26;101366.13;5014756;28;46026;-83
2022/06/28 01:20:52;;;;;;;;;1.00;1.00;;;;;19.75;51.16;101348.66;5015228;28;45581;-83
2022/06/28 01:23:19;;;;;;;;;2.00;2.00;;;;;19.76;50.94;101357.47;5015405;28;45628;-82
2022/06/28 01:25:45;;;;;;;;;1.00;1.00;;;;;19.68;51.16;101343.09;5015821;28;45550;-83
2022/06/28 01:28:11;;;;;;;;;2.00;2.00;;;;;19.81;51.37;101368.50;5015709;28;45529;-81
2022/06/28 01:33:59;;;;;;;;;1.00;1.00;;;;;19.78;51.84;101366.13;5016002;28;45935;-83
2022/06/28 01:36:24;;;;;;;;;1.25;1.25;;;;;19.75;52.03;101367.28;5015818;28;45774;-81
2022/06/28 01:38:50;;;;;;;;;1.25;1.00;;;;;19.73;51.41;101369.22;5018071;28;46540;-81
2022/06/28 01:41:33;;;;;;;;;1.00;1.00;;;;;19.68;51.72;101363.53;5019591;28;47087;-85
2022/06/28 01:44:02;;;;;;;;;1.00;1.00;;;;;19.67;52.10;101360.03;5001345;28;46004;-81
2022/06/28 01:46:28;;;;;;;;;1.00;1.00;;;;;19.66;51.98;101358.34;5018965;28;45599;-83
2022/06/28 01:48:54;;;;;;;;;1.00;1.00;;;;;19.58;52.02;101352.13;5017756;28;45757;-82
2022/06/28 01:51:20;;;;;;;;;2.50;1.25;;;;;19.58;52.67;101358.28;5015732;28;46059;-83
2022/06/28 01:53:45;;;;;;;;;1.75;1.75;;;;;19.54;52.38;101358.72;5015462;28;45849;-83
2022/06/28 01:56:11;;;;;;;;;3.00;1.00;;;;;19.50;52.43;101362.63;5014653;28;45730;-82
2022/06/28 01:58:39;;;;;;;;;1.25;1.00;;;;;19.45;52.58;101367.56;5014799;28;46658;-83
2022/06/28 02:01:04;;;;;;;;;1.00;1.00;;;;;19.38;52.61;101353.19;5015275;28;46498;-82
2022/06/28 02:03:30;;;;;;;;;0.25;0.00;;;;;19.32;52.42;101357.25;4997589;28;45663;-82
2022/06/28 02:05:55;;;;;;;;;1.00;1.00;;;;;19.24;52.86;101342.03;5013769;28;45925;-83
2022/06/28 02:08:20;;;;;;;;;2.00;1.00;;;;;19.21;52.53;101342.34;5014640;28;45677;-81
2022/06/28 02:10:46;;;;;;;;;1.00;1.00;;;;;19.17;52.20;101340.09;5014751;28;46512;-84
2022/06/28 02:13:11;;;;;;;;;0.25;0.00;;;;;19.12;52.86;101329.94;5013244;28;45656;-83
2022/06/28 02:18:58;;;;;;;;;1.25;1.00;;;;;19.17;52.45;101345.41;5014151;28;45975;-82
2022/06/28 02:21:24;;;;;;;;;0.50;0.25;;;;;19.16;52.36;101344.56;5016619;28;45665;-83
2022/06/28 02:23:49;;;;;;;;;1.75;0.75;;;;;19.12;52.53;101342.38;4999576;28;45636;-82
2022/06/28 02:26:15;;;;;;;;;0.75;0.75;;;;;19.12;52.53;101342.38;5018004;28;45723;-82
2022/06/28 02:28:42;;;;;;;;;1.00;0.00;;;;;19.12;52.19;101348.53;5017913;28;47023;-82
2022/06/28 02:42:41;;;;;;;;;0.25;0.00;;;;;19.15;51.96;101342.94;5017587;28;45978;-84
2022/06/28 02:45:07;;;;;;;;;1.00;0.50;;;;;19.18;51.85;101347.09;5017568;28;45711;-82
2022/06/28 02:47:33;;;;;;;;;0.25;0.25;;;;;19.17;51.79;101351.56;5017653;28;45680;-82
2022/06/28 02:49:58;;;;;;;;;0.75;0.00;;;;;19.16;51.98;101347.25;5017567;28;45622;-82
2022/06/28 02:52:23;;;;;;;;;0.25;0.25;;;;;19.14;51.59;101343.06;5018007;28;45595;-82
2022/06/28 02:54:49;;;;;;;;;0.75;0.00;;;;;19.18;51.59;101347.09;5017560;28;45770;-83
2022/06/28 02:57:14;;;;;;;;;0.50;0.00;;;;;19.10;51.55;101342.53;5017499;28;45560;-81
2022/06/28 02:59:39;;;;;;;;;1.00;1.00;;;;;19.17;51.41;101351.56;5017608;28;46736;-82
2022/06/28 03:02:06;;;;;;;;;1.00;0.75;;;;;19.08;51.98;101341.00;5016077;28;48023;-82
2022/06/28 03:04:31;;;;;;;;;0.25;0.25;;;;;19.13;52.08;101347.53;5017922;28;45749;-82
2022/06/28 03:06:57;;;;;;;;;0.00;0.00;;;;;19.11;51.62;101343.38;5017587;28;45578;-83
2022/06/28 03:09:22;;;;;;;;;1.00;0.00;;;;;19.10;52.11;101336.38;5017156;28;45574;-82
2022/06/28 03:11:48;;;;;;;;;0.00;0.00;;;;;19.03;51.51;101322.84;5017188;28;46256;-82
2022/06/28 03:14:13;;;;;;;;;1.00;1.00;;;;;19.02;51.76;101330.94;5015497;28;45570;-82
2022/06/28 03:20:00;;;;;;;;;1.50;0.75;;;;;19.08;52.08;101339.19;5017242;28;46029;-84
2022/06/28 03:22:26;;;;;;;;;1.00;0.50;;;;;19.09;52.15;101338.19;5017657;28;46213;-82
2022/06/28 03:24:51;;;;;;;;;1.00;0.75;;;;;19.06;51.84;101338.47;5019155;28;45602;-82
2022/06/28 03:27:16;;;;;;;;;0.00;0.00;;;;;19.04;52.13;101329.00;5019966;28;45665;-82
2022/06/28 03:29:42;;;;;;;;;1.00;0.00;;;;;19.10;51.71;101349.66;5020144;28;46505;-81
2022/06/28 03:32:07;;;;;;;;;1.00;0.25;;;;;19.03;51.53;101335.28;5018702;28;46282;-83
2022/06/28 03:34:33;;;;;;;;;0.25;0.00;;;;;19.08;51.64;101351.63;5020010;28;45685;-82
2022/06/28 03:36:59;;;;;;;;;0.25;0.25;;;;;18.98;51.53;101327.75;5017469;28;45869;-82
2022/06/28 03:39:24;;;;;;;;;1.75;1.00;;;;;19.06;52.01;101351.75;5019281;28;46691;-83
2022/06/28 03:41:50;;;;;;;;;1.00;0.00;;;;;19.03;51.79;101349.41;5019568;28;45739;-83
2022/06/28 03:44:15;;;;;;;;;0.25;0.25;;;;;18.99;51.36;101333.91;5019011;28;45608;-82
2022/06/28 03:50:03;;;;;;;;;1.00;1.00;;;;;19.04;51.49;101345.78;5017723;28;45687;-82
2022/06/28 03:52:29;;;;;;;;;1.00;1.00;;;;;19.05;51.65;101347.44;5019725;28;45557;-82
2022/06/28 03:54:56;;;;;;;;;1.00;1.00;;;;;19.02;51.34;101350.38;5019152;28;45669;-83
2022/06/28 03:57:23;;;;;;;;;0.00;0.00;;;;;19.05;51.09;101351.94;5017859;28;45587;-82
2022/06/28 03:59:48;;;;;;;;;1.75;0.25;;;;;18.93;50.94;101335.31;5019994;28;45669;-82
2022/06/28 04:02:14;;;;;;;;;1.00;0.00;;;;;18.98;51.29;101346.34;5017985;28;45691;-82
2022/06/28 04:04:39;;;;;;;;;1.25;1.00;;;;;19.00;51.27;101356.84;5017382;28;45690;-82
2022/06/28 04:07:05;;;;;;;;;0.00;0.00;;;;;18.98;50.92;101358.78;5017215;28;45689;-81
2022/06/28 04:09:30;;;;;;;;;0.75;0.75;;;;;18.98;51.48;101361.44;5016548;28;45699;-83
2022/06/28 04:11:55;;;;;;;;;1.00;1.00;;;;;18.96;51.05;101360.75;5014902;28;48188;-83
2022/06/28 04:14:21;;;;;;;;;1.25;0.00;;;;;18.92;50.94;101360.19;5016572;28;46098;-83
2022/06/28 04:20:09;;;;;;;;;0.00;0.00;;;;;18.85;51.40;101348.47;5018285;28;45815;-84
2022/06/28 04:22:34;;;;;;;;;1.00;1.00;;;;;18.81;51.13;101353.25;5018445;28;45898;-82
2022/06/28 04:24:59;;;;;;;;;1.00;1.00;;;;;18.82;51.39;101359.41;5018530;28;45611;-85
2022/06/28 04:27:25;;;;;;;;;1.75;0.00;;;;;18.82;51.52;101362.88;5016879;28;45635;-81
2022/06/28 04:29:50;;;;;;;;;1.00;1.00;;;;;18.69;51.60;101348.22;5003437;28;47593;-83
2022/06/28 04:35:38;;;;;;;;;0.00;0.00;;;;;18.76;51.15;101362.63;5022783;28;45525;-82
2022/06/28 04:38:03;;;;;;;;;1.75;1.00;;;;;18.73;51.63;101350.44;5005330;28;45686;-83
2022/06/28 04:40:28;;;;;;;;;0.00;0.00;;;;;18.73;51.05;101352.31;5023049;28;45556;-82
2022/06/28 04:42:54;;;;;;;;;1.50;0.00;;;;;18.71;50.98;101354.25;5020942;28;47112;-81
2022/06/28 04:45:20;;;;;;;;;0.25;0.00;;;;;18.79;50.76;101368.47;5021495;28;45698;-84
2022/06/28 04:47:45;;;;;;;;;2.00;1.00;;;;;18.72;50.93;101345.31;5021945;28;45901;-83
2022/06/28 04:50:10;;;;;;;;;0.75;0.00;;;;;18.76;51.35;101352.00;5021896;28;46507;-81
2022/06/28 04:52:36;;;;;;;;;1.75;1.00;;;;;18.73;51.18;101350.44;5022449;28;46579;-83
2022/06/28 04:55:03;;;;;;;;;1.00;1.00;;;;;18.84;51.22;101368.03;5022034;28;45526;-82
2022/06/28 04:57:28;;;;;;;;;1.00;1.00;;;;;18.88;51.41;101372.09;5022157;28;45568;-85
2022/06/28 04:59:54;;;;;;;;;1.00;1.00;;;;;18.81;51.05;101360.38;5022334;28;45647;-83
2022/06/28 05:05:41;;;;;;;;;1.00;1.00;;;;;18.93;51.19;101371.66;5022178;28;45513;-85
2022/06/28 05:08:07;;;;;;;;;1.00;1.00;;;;;18.98;51.37;101370.25;5004059;28;45928;-85
2022/06/28 05:10:32;;;;;;;;;1.00;1.00;;;;;18.90;50.69;101359.50;5022137;28;45781;-83
2022/06/28 05:12:57;;;;;;;;;1.00;1.00;;;;;19.00;50.79;101380.75;5021868;28;46178;-85
2022/06/28 05:15:23;;;;;;;;;1.00;1.00;;;;;19.07;51.01;101382.66;5021830;28;45556;-82
2022/06/28 05:21:10;;;;;;;;;3.00;2.00;;;;;19.14;50.59;101385.56;5021314;28;45691;-84
2022/06/28 05:23:37;;;;;;;;;1.50;1.50;;;;;19.15;50.29;101381.94;5021186;28;45767;-82
2022/06/28 05:26:03;;;;;;;;;1.00;0.75;;;;;19.16;50.11;101378.31;5021819;28;45807;-80
2022/06/28 05:28:29;;;;;;;;;1.00;1.00;;;;;19.19;50.42;101376.19;5022090;28;45589;-82
2022/06/28 05:30:54;;;;;;;;;1.75;1.00;;;;;19.23;50.04;101376.72;5022052;28;45518;-84
2022/06/28 05:33:20;;;;;;;;;0.75;0.00;;;;;19.26;50.06;101373.78;5021679;28;45405;-83
2022/06/28 05:35:46;;;;;;;;;0.50;0.50;;;;;19.28;49.79;101374.47;5020460;28;45569;-82
2022/06/28 05:38:11;;;;;;;;;1.00;1.00;;;;;19.31;49.75;101371.53;5020152;28;45743;-83
2022/06/28 05:40:36;;;;;;;;;0.00;0.00;;;;;19.39;49.67;101379.59;5020018;28;45707;-84
2022/06/28 05:43:02;;;;;;;;;1.00;1.00;;;;;19.36;49.69;101363.94;5020228;28;45661;-83
2022/06/28 05:45:27;;;;;;;;;2.50;1.00;;;;;19.42;49.12;101365.19;5020743;28;45575;-82
2022/06/28 05:51:14;;;;;;;;;1.00;1.00;;;;;19.55;49.19;101369.19;5020495;28;45700;-83
2022/06/28 05:53:40;;;;;;;;;0.00;0.00;;;;;19.55;48.98;101363.88;5020270;28;46583;-84
2022/06/28 05:56:05;;;;;;;;;0.75;0.75;;;;;19.59;48.85;101362.63;4995901;28;45732;-83
2022/06/28 05:58:31;;;;;;;;;0.75;0.75;;;;;19.64;49.08;101364.81;4999528;28;45664;-82
2022/06/28 06:00:56;;;;;;;;;2.50;2.00;;;;;19.66;48.42;101362.81;4997401;28;46634;-82
2022/06/28 06:03:22;;;;;;;;;1.50;1.00;;;;;19.59;48.51;101345.81;4981468;28;47463;-82
2022/06/28 06:05:48;;;;;;;;;1.50;1.00;;;;;19.67;48.53;101367.16;5001874;28;45542;-85
2022/06/28 06:08:15;;;;;;;;;2.00;2.00;;;;;19.72;48.31;101361.41;5001106;28;45538;-83
2022/06/28 06:10:40;;;;;;;;;0.50;0.50;;;;;19.73;48.09;101361.25;5002837;28;45555;-82
2022/06/28 06:13:06;;;;;;;;;1.00;0.75;;;;;19.74;48.59;101362.94;5005833;28;45538;-83
2022/06/28 06:15:31;;;;;;;;;1.00;1.00;;;;;19.75;48.34;101353.13;5011280;28;45680;-82
2022/06/28 06:21:19;;;;;;;;;3.50;3.50;;;;;19.85;48.45;101357.41;4995560;28;46264;-78
2022/06/28 06:23:44;;;;;;;;;4.00;1.00;;;;;19.83;48.22;101354.03;4994133;28;45648;-77
2022/06/28 06:26:45;;;;;;;;;1.00;1.00;;;;;19.89;48.23;101356.09;4995207;28;45692;-81
2022/06/28 06:29:11;;;;;;;;;4.25;2.00;;;;;19.83;48.16;101339.91;4993922;28;45538;-82
2022/06/28 06:31:36;;;;;;;;;1.50;1.50;;;;;19.90;48.41;101348.97;4993816;28;45900;-80
2022/06/28 06:34:02;;;;;;;;;1.00;1.00;;;;;19.93;48.19;101346.81;4993829;28;45594;-80
2022/06/28 06:36:28;;;;;;;;;2.00;2.00;;;;;19.97;48.18;101350.84;4993887;28;45640;-81
2022/06/28 06:38:54;;;;;;;;;2.75;1.50;;;;;20.03;47.98;101349.41;4996251;28;45886;-80
2022/06/28 06:41:19;;;;;;;;;0.50;0.50;;;;;20.00;47.85;101337.25;4996376;28;48254;-82
2022/06/28 06:43:45;;;;;;;;;1.75;1.25;;;;;20.10;48.12;101350.47;4998766;28;45575;-82
2022/06/28 06:46:10;;;;;;;;;1.50;0.50;;;;;20.04;47.71;101332.47;4996335;28;45624;-81
2022/06/28 06:51:57;;;;;;;;;2.25;2.25;;;;;20.17;47.63;101345.41;4994727;28;45598;-82
2022/06/28 06:54:23;;;;;;;;;1.50;1.00;;;;;20.18;47.88;101350.56;4993791;28;46229;-81
2022/06/28 06:56:48;;;;;;;;;0.50;0.50;;;;;20.17;47.42;101338.25;5004345;28;45738;-81
2022/06/28 06:59:14;;;;;;;;;1.25;1.25;;;;;20.22;47.57;101341.28;4995894;28;45531;-81
2022/06/28 07:01:42;;;;;;;;;6.75;6.50;;;;;20.28;47.55;101342.50;5013334;28;45806;-82
2022/06/28 07:04:08;;;;;;;;;2.50;2.00;;;;;20.28;47.44;101345.16;5012934;28;46246;-81
2022/06/28 07:06:34;;;;;;;;;3.25;1.75;;;;;20.21;47.16;101315.66;5017598;28;45687;-81
2022/06/28 07:08:59;;;;;;;;;3.00;1.00;;;;;20.23;47.25;101319.00;5021134;28;45624;-80
2022/06/28 07:11:25;;;;;;;;;1.50;1.50;;;;;20.33;46.83;101324.28;5020759;28;46350;-80
2022/06/28 07:13:50;;;;;;;;;1.75;1.00;;;;;20.29;46.85;101321.06;5018906;28;46473;-81
2022/06/28 07:16:16;;;;;;;;;1.75;1.75;;;;;20.33;47.46;101325.09;5019825;28;45637;-81
2022/06/28 07:22:03;;;;;;;;;0.75;0.00;;;;;20.39;46.90;101321.81;5022415;28;45628;-81
2022/06/28 07:24:29;;;;;;;;;1.50;1.00;;;;;20.40;47.39;101309.34;5023357;28;46357;-83
2022/06/28 07:26:54;;;;;;;;;0.50;0.50;;;;;20.37;47.04;101305.16;5023227;28;45595;-79
2022/06/28 07:29:20;;;;;;;;;2.00;2.00;;;;;20.49;47.09;101317.25;5021685;28;45650;-80
2022/06/28 07:31:46;;;;;;;;;1.75;1.75;;;;;20.44;47.47;101292.91;5001690;28;47105;-80
2022/06/28 07:37:33;;;;;;;;;1.75;1.75;;;;;20.58;47.29;101301.31;5015892;28;45655;-80
2022/06/28 07:39:59;;;;;;;;;1.75;1.50;;;;;20.59;47.10;101297.66;5016294;28;45823;-80
2022/06/28 07:42:25;;;;;;;;;1.50;1.50;;;;;20.64;47.34;101301.53;5016097;28;46805;-81
2022/06/28 07:44:50;;;;;;;;;2.75;2.50;;;;;20.65;47.29;101297.88;5015966;28;45651;-81
2022/06/28 07:47:16;;;;;;;;;1.50;1.50;;;;;20.69;47.33;101298.38;5017176;28;45461;-81
2022/06/28 07:52:35;;;;;;;;;2.00;2.00;;;;;20.77;47.05;101299.28;5015674;28;46027;-80
2022/06/28 07:55:01;;;;;;;;;2.00;2.00;;;;;20.82;46.92;101299.63;5016171;28;45867;-83
2022/06/28 07:57:27;;;;;;;;;3.00;3.00;;;;;20.84;47.07;101292.31;5015668;28;45737;-81
2022/06/28 07:59:53;;;;;;;;;1.50;1.50;;;;;20.87;47.03;101291.16;5015820;28;45653;-81
2022/06/28 08:02:19;;;;;;;;;1.50;1.25;;;;;20.86;46.95;101284.16;5015546;28;47360;-81
2022/06/28 08:04:44;;;;;;;;;3.00;3.00;;;;;20.90;46.90;101277.50;5015511;28;46244;-82
2022/06/28 08:07:10;;;;;;;;;2.25;2.00;;;;;20.96;46.70;101279.53;5015671;28;45819;-81
2022/06/28 08:09:35;;;;;;;;;1.00;1.00;;;;;20.86;47.01;101265.53;5015849;28;45741;-82
2022/06/28 08:12:01;;;;;;;;;2.50;1.00;;;;;21.01;46.89;101285.22;5015906;28;46418;-77
2022/06/28 08:14:27;;;;;;;;;3.00;2.50;;;;;21.04;46.92;101290.25;5016873;28;45658;-78
2022/06/28 08:16:52;;;;;;;;;1.00;1.00;;;;;20.99;46.72;101271.25;5018191;28;45626;-84
2022/06/28 08:22:40;;;;;;;;;2.00;2.00;;;;;21.15;46.95;101267.84;5022100;28;45636;-77
2022/06/28 08:25:06;;;;;;;;;1.50;1.25;;;;;21.17;46.65;101274.66;5025637;28;45779;-76
2022/06/28 08:27:31;;;;;;;;;1.75;1.75;;;;;21.15;46.17;101262.50;5008879;28;45781;-78
2022/06/28 08:29:57;;;;;;;;;2.00;1.50;;;;;21.17;46.09;101256.00;5023757;28;45551;-77
2022/06/28 08:32:23;;;;;;;;;1.75;1.75;;;;;21.22;45.76;101267.00;5019688;28;45614;-79
2022/06/28 08:34:49;;;;;;;;;1.75;1.75;;;;;21.19;46.12;101248.69;5017174;28;46959;-80
2022/06/28 08:37:15;;;;;;;;;1.00;1.00;;;;;21.26;45.59;101255.06;5022168;28;45461;-75
2022/06/28 08:39:40;;;;;;;;;1.50;1.00;;;;;21.37;46.17;101263.75;5020853;28;45632;-78
2022/06/28 08:42:07;;;;;;;;;4.25;2.00;;;;;21.40;45.40;101256.25;5017777;28;46554;-82
2022/06/28 08:44:35;;;;;;;;;2.00;2.00;;;;;21.43;45.55;101250.56;5018447;28;45986;-79
2022/06/28 08:47:02;;;;;;;;;2.00;2.00;;;;;21.44;45.82;101236.25;5017530;28;45746;-80
2022/06/28 08:52:51;;;;;;;;;4.00;2.75;;;;;21.56;45.53;101244.78;5017515;28;45768;-84
2022/06/28 08:55:18;;;;;;;;;3.25;3.00;;;;;21.55;45.17;101227.94;4997631;28;47456;-78
2022/06/28 08:57:44;;;;;;;;;4.00;2.00;;;;;21.60;45.17;101228.28;5014669;28;45649;-77
2022/06/28 09:00:11;;;;;;;;;2.75;2.50;;;;;21.64;45.71;101224.28;5015799;28;45628;-81
2022/06/28 09:02:37;;;;;;;;;2.00;2.00;;;;;21.66;45.17;101211.59;5017378;28;46710;-80
2022/06/28 09:05:03;;;;;;;;;2.50;2.00;;;;;21.74;44.97;101214.28;5016780;28;46272;-79
2022/06/28 09:07:29;;;;;;;;;2.00;2.00;;;;;21.67;43.51;101199.94;5018730;28;45499;-80
2022/06/28 09:09:55;;;;;;;;;2.00;1.00;;;;;21.71;43.56;101195.94;5019574;28;45642;-78
2022/06/28 09:12:21;;;;;;;;;1.00;1.00;;;;;21.76;43.16;101196.28;5019071;28;45483;-79
2022/06/28 09:14:47;;;;;;;;;1.00;1.00;;;;;21.86;43.40;101200.63;5019671;28;45910;-77
2022/06/28 09:17:23;;;;;;;;;2.00;1.75;;;;;21.96;43.14;101206.66;5002120;28;45552;-78
2022/06/28 09:23:22;;;;;;;;;2.00;1.50;;;;;22.03;42.04;101189.78;5018557;28;45623;-81
2022/06/28 09:25:48;;;;;;;;;3.00;2.00;;;;;22.07;42.47;101190.28;5002075;28;46854;-79
2022/06/28 09:28:23;;;;;;;;;1.00;1.00;;;;;22.10;42.10;101184.59;5019532;28;45709;-80
2022/06/28 09:30:48;;;;;;;;;0.25;0.25;;;;;22.06;41.29;101169.94;5000575;28;45736;-77
2022/06/28 09:33:27;;;;;;;;;0.75;0.75;;;;;;;;5019400;28;46492;-78
2022/06/28 09:35:53;;;;;;;;;2.00;1.00;;;;;22.20;41.18;101174.56;5000561;28;46976;-77
2022/06/28 09:38:30;;;;;;;;;1.00;1.00;;;;;22.28;40.44;101179.91;5018740;28;45831;-78
2022/06/28 09:40:56;;;;;;;;;1.00;1.00;;;;;22.29;40.40;101176.22;5000794;28;45930;-79
2022/06/28 09:43:21;;;;;;;;;1.00;1.00;;;;;22.31;39.54;101176.03;5018401;28;45674;-79
2022/06/28 09:45:47;;;;;;;;;0.50;0.50;;;;;22.33;40.17;101166.03;5017020;28;47079;-78
2022/06/28 09:48:20;;;;;;;;;1.75;0.75;;;;;22.40;39.24;101170.50;5017694;28;45674;-86
2022/06/28 09:50:46;;;;;;;;;0.25;0.25;;;;;22.44;39.46;101160.31;5001655;28;46027;-78
2022/06/28 09:53:15;;;;;;;;;2.00;1.25;;;;;22.46;39.69;101155.63;5018658;28;46752;-81
2022/06/28 09:55:42;;;;;;;;;1.25;1.00;;;;;22.55;39.61;101159.94;5018202;28;45414;-84
2022/06/28 09:58:09;;;;;;;;;0.00;0.00;;;;;22.59;38.07;101169.28;5016926;28;45713;-84
2022/06/28 10:00:39;;;;;;;;;1.00;1.00;;;;;22.59;38.53;101164.75;5015770;28;45628;-78
2022/06/28 10:03:05;;;;;;;;;1.25;1.25;;;;;22.52;38.06;101142.41;5017033;28;45921;-81
2022/06/28 10:05:32;;;;;;;;;1.00;1.00;;;;;22.65;38.49;101157.06;5017056;28;46737;-87
2022/06/28 10:07:58;;;;;;;;;1.50;1.00;;;;;22.65;38.54;101149.03;5017665;28;45628;-82
2022/06/28 10:10:24;;;;;;;;;1.00;1.00;;;;;22.77;38.35;101159.22;5019674;28;45658;-78
2022/06/28 10:15:37;;;;;;;;;1.00;1.00;;;;;22.85;38.80;101140.44;5022890;28;46103;-80
2022/06/28 10:24:15;;;;;;;;;1.00;1.00;;;;;23.07;38.36;101132.63;5021716;28;45641;-80
2022/06/28 10:27:13;;;;;;;;;2.00;1.25;;;;;23.13;37.90;101130.09;5020266;28;47945;-83
2022/06/28 10:30:08;;;;;;;;;1.00;1.00;;;;;23.20;37.27;101128.38;5019500;28;45805;-80
2022/06/28 10:32:58;;;;;;;;;1.00;1.00;;;;;23.18;36.57;101118.84;5020191;28;45550;-78
2022/06/28 10:35:49;;;;;;;;;2.00;2.00;;;;;23.22;37.07;101117.47;5019198;28;46533;-79
2022/06/28 10:38:15;;;;;;;;;2.00;1.25;;;;;23.17;37.24;101103.81;5024231;28;45709;-77
2022/06/28 10:40:45;;;;;;;;;2.00;2.00;;;;;23.29;37.01;101118.44;5023387;28;45760;-82
2022/06/28 10:43:11;;;;;;;;;1.50;1.50;;;;;23.34;36.74;101116.88;5024957;28;45497;-81
2022/06/28 10:46:05;;;;;;;;;1.25;1.25;;;;;23.40;37.40;101115.34;5022775;28;45681;-82
2022/06/28 10:52:22;;;;;;;;;1.00;1.00;;;;;23.51;36.71;101098.91;5020302;28;45236;-77
2022/06/28 10:54:57;;;;;;;;;3.50;2.75;;;;;23.54;37.03;101097.69;5018999;28;45907;-76
2022/06/28 10:57:40;;;;;;;;;2.00;2.00;;;;;23.59;36.55;101103.34;5016605;28;45635;-76
2022/06/28 11:00:11;;;;;;;;;0.75;0.50;;;;;23.64;35.16;101096.44;5016755;28;45969;-78
2022/06/28 11:02:59;;;;;;;;;1.00;1.00;;;;;23.71;34.85;101107.22;5016792;28;45637;-77
2022/06/28 11:08:54;;;;;;;;;1.50;1.50;;;;;23.83;35.44;101095.06;5016514;28;45579;-77
2022/06/28 11:11:20;;;;;;;;;2.00;2.00;;;;;23.88;35.54;101098.03;5016854;28;45947;-77
2022/06/28 11:13:45;;;;;;;;;1.00;1.00;;;;;23.92;35.17;101096.63;5015076;28;45663;-75
2022/06/28 11:16:43;;;;;;;;;1.00;1.00;;;;;24.00;35.64;101093.88;5016900;28;45631;-77
2022/06/28 11:19:08;;;;;;;;;0.75;0.75;;;;;24.05;34.54;101082.63;5016671;28;45724;-80
2022/06/28 11:21:37;;;;;;;;;2.00;1.25;;;;;24.04;34.45;101078.28;5016647;28;46327;-79
2022/06/28 11:24:03;;;;;;;;;1.00;1.00;;;;;24.07;34.56;101081.44;5016319;28;45520;-78
2022/06/28 11:29:17;;;;;;;;;1.00;1.00;;;;;24.18;34.45;101086.31;5016028;28;45576;-77
2022/06/28 11:31:43;;;;;;;;;1.50;1.50;;;;;24.22;34.64;101092.16;5016445;28;45647;-77
2022/06/28 11:34:09;;;;;;;;;2.00;1.25;;;;;24.21;34.49;101080.59;5016177;28;45509;-78
2022/06/28 11:36:34;;;;;;;;;1.00;1.00;;;;;24.27;34.54;101079.03;5016397;28;45682;-77
2022/06/28 11:39:21;;;;;;;;;1.50;1.50;;;;;24.28;33.97;101074.50;5014445;28;48588;-77
2022/06/28 11:41:48;;;;;;;;;2.00;1.75;;;;;24.31;34.18;101076.81;5015865;28;46584;-75
2022/06/28 11:44:15;;;;;;;;;2.25;1.50;;;;;24.28;34.07;101074.50;5015881;28;45608;-78
2022/06/28 11:46:41;;;;;;;;;2.00;2.00;;;;;24.34;34.58;101085.31;5016094;28;45655;-78
2022/06/28 11:49:06;;;;;;;;;1.75;1.75;;;;;24.41;34.07;101074.66;5015652;28;45471;-78
2022/06/28 11:51:31;;;;;;;;;2.25;2.00;;;;;24.47;34.07;101072.06;5016018;28;46247;-78
2022/06/28 11:54:06;;;;;;;;;1.25;1.25;;;;;24.54;34.47;101050.72;5014630;28;45724;-77
2022/06/28 11:56:45;;;;;;;;;1.75;1.75;;;;;24.59;33.51;101065.22;5015779;28;45713;-79
2022/06/28 11:59:12;;;;;;;;;1.50;0.00;;;;;24.64;33.82;101075.34;5015633;28;45638;-76
2022/06/28 12:01:39;;;;;;;;;2.00;1.00;;;;;24.65;33.67;101059.09;5015670;28;45850;-77
2022/06/28 12:04:07;;;;;;;;;1.50;1.50;;;;;24.67;33.58;101049.00;5015696;28;45694;-78
2022/06/28 12:06:35;;;;;;;;;1.00;1.00;;;;;24.74;33.11;101046.38;5015881;28;45461;-78
2022/06/28 12:09:02;;;;;;;;;1.75;1.75;;;;;24.74;33.66;101037.50;5015621;28;45648;-76
2022/06/28 12:11:56;;;;;;;;;1.25;1.00;;;;;24.83;33.52;101037.19;5015764;28;46370;-75
2022/06/28 12:14:29;;;;;;;;;2.00;1.75;;;;;24.86;33.25;101034.16;5015644;28;45733;-79
2022/06/28 12:16:54;;;;;;;;;1.00;1.00;;;;;24.91;33.31;101030.91;5015611;28;45818;-79
2022/06/28 12:19:22;;;;;;;;;2.75;1.25;;;;;24.95;33.48;101029.50;4996936;28;48162;-80
2022/06/28 12:22:07;;;;;;;;;2.00;2.00;;;;;25.00;33.29;101025.22;5015322;28;45698;-77
2022/06/28 12:24:43;;;;;;;;;2.00;2.00;;;;;25.05;33.41;101028.16;5015166;28;45911;-78
2022/06/28 12:27:14;;;;;;;;;2.75;1.25;;;;;25.11;33.25;101026.56;5015432;28;45767;-80
2022/06/28 12:29:41;;;;;;;;;1.00;1.00;;;;;25.15;33.17;101013.59;5015070;28;46676;-78
2022/06/28 12:32:06;;;;;;;;;1.00;1.00;;;;;25.17;32.90;101017.75;4996744;28;48089;-77
2022/06/28 12:34:32;;;;;;;;;1.50;1.50;;;;;25.17;33.24;101004.31;5014972;28;45791;-78
2022/06/28 12:36:57;;;;;;;;;1.50;1.00;;;;;25.17;33.52;100996.28;5015051;28;45680;-78
2022/06/28 12:39:23;;;;;;;;;2.50;2.50;;;;;25.31;33.30;101011.47;5015066;28;45580;-77
2022/06/28 12:41:48;;;;;;;;;1.00;1.00;;;;;25.29;33.31;100996.56;5014898;28;46107;-81
2022/06/28 12:44:14;;;;;;;;;2.00;2.00;;;;;25.38;32.61;101000.75;5015050;28;46121;-80
2022/06/28 12:46:41;;;;;;;;;2.00;2.00;;;;;25.41;32.81;101009.28;5015057;28;45522;-79
2022/06/28 12:49:06;;;;;;;;;2.00;2.00;;;;;25.41;32.75;101001.22;5014694;28;46437;-79
2022/06/28 12:54:53;;;;;;;;;2.00;2.00;;;;;25.53;32.53;100998.81;5015998;28;45620;-79
2022/06/28 12:57:19;;;;;;;;;1.75;1.00;;;;;25.52;31.97;100993.66;5015598;28;45664;-78
2022/06/28 12:59:44;;;;;;;;;1.00;0.00;;;;;25.56;32.00;100994.94;5015566;28;46596;-78
2022/06/28 13:02:09;;;;;;;;;1.25;1.25;;;;;25.59;31.47;100989.19;5015944;28;45609;-78
2022/06/28 13:04:35;;;;;;;;;1.00;0.50;;;;;25.60;31.05;100993.50;5014421;28;45805;-78
2022/06/28 13:07:00;;;;;;;;;1.00;1.00;;;;;25.64;31.20;100992.09;5014624;28;45812;-80